עמוד ראשי
METAR-TAF:

METAR-TAF

שדות תעופה :

איילה, סקוטלנד

קו רוחב: 55-40-55N, קו אורך: 006-15-24W, גובה: 16מטר

תצפית מזג אוויר נוכחית

הדו"ח נערך לפני 30דקות, בשעה 10:50 UTC
רוח 5קשר מכיוון מערב/צפון-מערב
טמפרטורת 11 צלסיוס
לחות 71%
לחץ 1023 hPa
ראות 10 קילומטר או יותר
מעט עננים בגובה 2000רגל

METAR: EGPI 191050Z 29005KT 9999 FEW020 11/06 Q1023

זמן: 12:20 (11:20 UTC)

תחזית

הדו"ח נערך לפני 3 שעות ו 21דקות, בשעה 07:59 UTC
תחזית בתוקף מ 19 ב 09 UTC עד 19 ב 18 UTC
רוח 7קשר מכיוון צפון/צפון-מערב
ראות 10 קילומטר או יותר
מעט עננים בגובה 1500רגל
יעשה מ
19 ב 09 UTC עד 19 ב 12 UTC
רוח 10קשר מכיוון מערב/דרום-מערב

TAF: EGPI 190759Z 1909/1918 34007KT 9999 FEW015 BECMG 1909/1912 25010KT

תצפיות ותחזיות מזג אוויר לגבי יותר מ- 4,000 שדות תעופה ברחבי העולם. דוחות METAR ו- TAF.

התחנות הזמינות מסומנות בנקודות צהובות ואדומות על גבי המפה.

העבר את העכבר לנקודה הצבעונית על מנת לראות את שם התחנה.

לאחר מכן, לחץ כדי לראות את תוכן ואת תחזיות מזג האוויר.

כדי לשנות את המפה: לחץ על הכפתורים הירוקים עם הפלוס השחור כדי להתקרב; על הכפתור הירוק עם המקף כדי להתרחק; או בחיצים הירוקים למפות סמוכות.


METAR-TAF: